KPIM

Details ICAO KPIM (PIM)
Name HARRIS CO
Region United States
Timezone America/New_York (UTC-5.0)
Plans Departing 0
Arriving 0
Stats Elevation 902 ft / 275 m (AMSL)
Location 32.840699° -84.882436°
Runways 1
Magnetic Variation 4.674° W
Sunrise 2017-12-13 12:34:56 UTC / 2017-12-13 07:34:56 Local
Sunset 2017-12-13 22:35:35 UTC / 2017-12-13 17:35:35 Local
Advertisement - Login to hide

Runways

ID Width Length Bearing (true) Bearing (mag) Surface Threshold Offset Overrun Length
09 100 ft / 30 m 4,993 ft / 1,522 m 88.38° 93.05° Asphalt 0 ft / 0 m 0 ft / 0 m
27 100 ft / 30 m 4,993 ft / 1,522 m 268.39° 273.06° Asphalt 0 ft / 0 m 0 ft / 0 m

Map

Weather


0- 5 10 15 20 25 30 35+ Temperature / ° C

Clouds and Precipitation
Forecast for 2017-12-14 00:00 UTC. Updated 2 hours ago

Ground ~20,000 ft ~40,000 ft Winds

METAR

KPIM 132235Z AUTO 24006KT 10SM CLR 10/M07 A2994 RMK AO2 T00991069 PWINO

TAF

Not found

Frequencies

Unicom 122.80 MHz CTAF/UNICOM
Clearance 120.45 MHz CLNC DEL
Approach 126.55 MHz ATLANTA APP/DEP
Clearance 127.70 MHz CLNC DEL
Approach 125.50 MHz ATLANTA APP/DEP
Warning: Do not use this data for real-world aviation or navigation. No guarantee of current accuracy is given.